Track Тихонов Дмитрий

Time Latitude Longitude Accuracy (66% radius in meters) Altitude (meters) Speed (km/hour) Bearing (degrees) Battery (%) GPS flag
09:26:58 55.944026 38.068144 2 174.69999694824 0 0 70 1 delete
09:26:46 55.944026 38.068144 2.5 174.69999694824 0 0 70 1 delete
09:26:37 55.944026 38.068144 2.5 174.69999694824 0 0 70 1 delete
09:26:25 55.944026 38.068144 2.5 174.69999694824 0 0 70 1 delete
09:26:16 55.944026 38.068144 2 174.69999694824 0 0 70 1 delete
09:26:04 55.944026 38.068144 2 174.69999694824 0 0 70 1 delete
09:25:55 55.944026 38.068144 2.5 174.69999694824 0 0 70 1 delete
09:25:46 55.944026 38.068144 1.5 174.60000610352 0 36.397705078125 70 1 delete
09:25:43 55.944028 38.068089 2 172.39999389648 0 0 70 1 delete
09:25:34 55.944028 38.068089 1.5 172.39999389648 0 0 70 1 delete
09:25:22 55.944028 38.068089 1.5 172.39999389648 0 0 70 1 delete
09:25:13 55.944037 38.068051 1.5 173.60000610352 0 0 70 1 delete
09:25:01 55.944037 38.068051 1.5 173.60000610352 0 0 70 1 delete
09:24:52 55.944037 38.068051 1.5 173.60000610352 0 0 70 1 delete
09:24:40 55.944016 38.068021 2.5 174 0.56999999284744 60.067749023438 70 1 delete
09:24:34 55.943985 38.067934 3 173.80000305176 0.63999998569489 83.633422851562 70 1 delete
09:24:31 55.943990 38.067914 2.5 173.5 0.37999999523163 58.612060546875 70 1 delete
09:24:22 55.943972 38.067858 2 175 0 0 70 1 delete
09:24:10 55.943974 38.067803 2.5 177.30000305176 0 0 70 1 delete
09:24:07 55.943973 38.067776 3 178.39999389648 0.25 49.136352539062 70 1 delete
09:24:01 55.943943 38.067709 2.5 178.5 0.97999995946884 70.768432617188 70 1 delete
09:23:55 55.943915 38.067632 2.5 179.69999694824 0.9899999499321 62.913208007812 70 1 delete
09:23:49 55.943888 38.067567 2.5 180 0.95999997854233 86.380004882812 70 1 delete
09:23:40 55.943863 38.067464 2.5 183.89999389648 0.9099999666214 73.493041992188 70 1 delete
09:23:37 55.943772 38.067265 3 185.80000305176 4.5499997138977 49.10888671875 70 1 delete
09:23:34 55.943564 38.067072 3.5 186.89999389648 3.8399999141693 337.70874023438 70 1 delete
09:23:31 55.943444 38.066962 3 187.19999694824 2.289999961853 44.9560546875 70 1 delete
09:23:28 55.943359 38.066809 3 186.10000610352 0.37000000476837 130.23193359375 70 1 delete
09:23:25 55.943343 38.066733 3 185.30000305176 0.96999996900558 136.61499023438 70 1 delete
09:23:22 55.943321 38.066648 3 188.30000305176 0.8299999833107 76.613159179688 70 1 delete
09:23:19 55.943282 38.066448 3.5 188.80000305176 2.6900000572205 51.15234375 70 1 delete
09:23:16 55.943183 38.066260 3.5 188.10000610352 2.2799999713898 79.469604492188 70 1 delete
09:23:13 55.943094 38.066145 4 187.60000610352 0.3299999833107 340.01037597656 70 1 delete
09:23:10 55.943002 38.066170 3 187.89999389648 1.7199999094009 353.21594238281 70 1 delete
09:23:07 55.942919 38.066178 3 187.80000305176 0.9899999499321 358.76953125 70 1 delete
09:23:04 55.942855 38.066290 2.5 187.69999694824 4.5599999427795 315.66467285156 70 1 delete
09:23:01 55.942683 38.066404 2.5 188.60000610352 4.7799997329712 321.52038574219 70 1 delete
09:22:58 55.942540 38.066482 3.5 190.80000305176 3.8099999427795 334.91821289062 70 1 delete
09:22:55 55.942431 38.066533 3 191.10000610352 1.9399999380112 315.49987792969 70 1 delete
09:22:52 55.942379 38.066489 3 191.60000610352 2.6399998664856 40.479125976562 70 1 delete
09:22:49 55.942304 38.066382 2.5 192.5 1.5599999427795 50.498657226562 70 1 delete
09:22:46 55.942250 38.066315 3.5 193.69999694824 0 0 70 1 delete
09:22:40 55.942216 38.066311 3 194.19999694824 2.2799999713898 13.546142578125 70 1 delete
09:22:37 55.942090 38.066277 3 195.19999694824 3.1799998283386 359.81323242188 70 1 delete
09:22:34 55.941978 38.066223 3.5 196.30000305176 2.7000000476837 356.72058105469 70 1 delete
09:22:31 55.941888 38.066176 3.5 197.39999389648 2.0899999141693 1.6259765625 70 1 delete
09:22:28 55.941841 38.066104 3 198.39999389648 3.0499999523163 17.122192382812 70 1 delete
09:22:25 55.941778 38.066047 2 198.5 2.4900000095367 33.46435546875 70 1 delete
09:22:22 55.941798 38.065827 2.5 197.30000305176 5.039999961853 111.37390136719 70 1 delete
09:22:19 55.941878 38.065575 2 197.30000305176 4.9200000762939 121.96472167969 70 1 delete